createdAt,value
2022-08-16T00:01:22.185Z,60.96
2022-08-16T00:03:54.128Z,61.31
2022-08-16T00:06:21.946Z,61.44
2022-08-16T00:08:49.483Z,61.71
2022-08-16T00:11:16.796Z,61.47
2022-08-16T00:13:54.174Z,61.87
2022-08-16T00:17:01.068Z,61.89
2022-08-16T00:19:17.166Z,61.81
2022-08-16T00:21:46.869Z,61.85
2022-08-16T00:24:31.098Z,62.51
2022-08-16T00:27:04.072Z,62.50
2022-08-16T00:29:32.016Z,62.56
2022-08-16T00:32:06.059Z,62.30
2022-08-16T00:34:43.999Z,63.00
2022-08-16T00:37:20.874Z,63.04
2022-08-16T00:39:56.926Z,62.78
2022-08-16T00:42:30.712Z,62.98
2022-08-16T00:45:09.712Z,63.14
2022-08-16T00:47:49.597Z,63.17
2022-08-16T00:50:20.376Z,63.02
2022-08-16T00:52:50.899Z,63.35
2022-08-16T00:55:20.139Z,63.50
2022-08-16T00:57:59.482Z,63.74
2022-08-16T01:00:30.378Z,63.64
2022-08-16T01:03:02.672Z,63.76
2022-08-16T01:05:30.513Z,63.93
2022-08-16T01:08:35.463Z,63.59
2022-08-16T01:10:52.842Z,63.67
2022-08-16T01:13:26.931Z,63.90
2022-08-16T01:16:01.125Z,63.75
2022-08-16T01:18:39.860Z,64.15
2022-08-16T01:21:25.309Z,63.69
2022-08-16T01:24:51.415Z,63.89
2022-08-16T01:27:18.945Z,63.90
2022-08-16T01:29:58.195Z,64.43
2022-08-16T01:32:31.427Z,64.20
2022-08-16T01:35:00.765Z,64.57
2022-08-16T01:37:27.601Z,64.72
2022-08-16T01:40:07.154Z,64.64
2022-08-16T01:42:37.079Z,64.47
2022-08-16T01:45:11.375Z,64.86
2022-08-16T01:47:49.451Z,65.10
2022-08-16T01:50:42.549Z,65.01
2022-08-16T01:53:10.170Z,64.83
2022-08-16T01:55:40.631Z,65.53
2022-08-16T01:58:07.497Z,65.30
2022-08-16T02:00:40.491Z,65.67
2022-08-16T02:03:08.045Z,65.29
2022-08-16T02:05:42.150Z,65.91
2022-08-16T02:08:32.790Z,65.72
2022-08-16T02:11:00.546Z,66.02
2022-08-16T02:13:32.655Z,66.29
2022-08-16T02:15:59.932Z,66.55
2022-08-16T02:18:26.682Z,66.43
2022-08-16T02:20:53.921Z,66.71
2022-08-16T02:23:21.519Z,66.91
2022-08-16T02:25:53.728Z,66.90
2022-08-16T02:28:23.526Z,67.14
2022-08-16T02:30:51.700Z,67.02
2022-08-16T02:33:24.405Z,67.13
2022-08-16T02:35:55.129Z,67.36
2022-08-16T02:38:28.356Z,67.34
2022-08-16T02:40:57.906Z,67.73
2022-08-16T02:43:33.193Z,67.66
2022-08-16T02:46:00.044Z,67.86
2022-08-16T02:48:31.104Z,67.96
2022-08-16T02:51:06.291Z,68.06
2022-08-16T02:53:43.092Z,68.23
2022-08-16T02:56:14.938Z,68.27
2022-08-16T02:58:42.381Z,68.16
2022-08-16T03:01:24.341Z,68.71
2022-08-16T03:04:39.613Z,68.48
2022-08-16T03:06:48.232Z,68.91
2022-08-16T03:09:17.714Z,68.95
2022-08-16T03:11:44.853Z,68.81
2022-08-16T03:14:12.340Z,69.03
2022-08-16T03:16:59.117Z,69.02
2022-08-16T03:19:48.378Z,69.54
2022-08-16T03:22:19.511Z,69.34
2022-08-16T03:24:57.429Z,69.27
2022-08-16T03:27:25.340Z,69.28
2022-08-16T03:29:57.994Z,69.48
2022-08-16T03:32:26.746Z,69.67
2022-08-16T03:34:56.163Z,69.75
2022-08-16T03:37:23.351Z,69.55
2022-08-16T03:39:56.575Z,69.76
2022-08-16T03:42:28.501Z,70.04
2022-08-16T03:45:03.305Z,69.95
2022-08-16T03:47:34.328Z,70.03
2022-08-16T03:50:25.932Z,70.10
2022-08-16T03:53:00.544Z,70.00
2022-08-16T03:55:39.997Z,70.34
2022-08-16T03:58:12.638Z,70.05
2022-08-16T04:00:41.259Z,70.40
2022-08-16T04:03:08.751Z,70.46
2022-08-16T04:05:47.323Z,70.24
2022-08-16T04:08:24.078Z,70.32
2022-08-16T04:10:53.141Z,70.55
2022-08-16T04:13:59.407Z,70.40
2022-08-16T04:16:07.791Z,70.44
2022-08-16T04:18:38.793Z,70.55
2022-08-16T04:21:06.066Z,70.41
2022-08-16T04:23:32.587Z,70.57
2022-08-16T04:26:02.145Z,70.84
2022-08-16T04:28:55.798Z,70.83
2022-08-16T04:31:18.064Z,70.68
2022-08-16T04:33:50.996Z,70.52
2022-08-16T04:36:20.059Z,70.53
2022-08-16T04:38:50.026Z,70.60
2022-08-16T04:41:19.832Z,70.57
2022-08-16T04:44:00.328Z,70.75
2022-08-16T04:47:02.719Z,70.45
2022-08-16T04:49:18.408Z,70.52
2022-08-16T04:51:45.644Z,70.42
2022-08-16T04:54:20.843Z,70.48
2022-08-16T04:56:49.869Z,70.21
2022-08-16T04:59:20.457Z,70.22
2022-08-16T05:01:59.233Z,70.22
2022-08-16T05:04:26.146Z,68.53
2022-08-16T05:06:57.318Z,65.85
2022-08-16T05:09:24.452Z,63.62
2022-08-16T05:11:53.274Z,61.21
2022-08-16T05:14:45.677Z,59.71
2022-08-16T05:17:13.948Z,57.84
2022-08-16T05:19:40.603Z,56.30
2022-08-16T05:22:18.180Z,54.84
2022-08-16T05:24:45.077Z,53.54
2022-08-16T05:27:13.946Z,52.41
2022-08-16T05:29:56.824Z,50.78
2022-08-16T05:32:32.427Z,49.38
2022-08-16T05:35:07.702Z,48.04
2022-08-16T05:37:40.226Z,46.76
2022-08-16T05:40:08.374Z,45.60
2022-08-16T05:42:37.513Z,44.77
2022-08-16T05:45:06.919Z,43.47
2022-08-16T05:47:33.659Z,42.79
2022-08-16T05:50:10.294Z,41.47
2022-08-16T05:52:46.131Z,40.80
2022-08-16T05:55:13.585Z,40.09
2022-08-16T05:57:40.231Z,39.16
2022-08-16T06:00:11.994Z,38.99
2022-08-16T06:02:38.643Z,38.13
2022-08-16T06:05:06.653Z,37.32
2022-08-16T06:07:38.531Z,36.70
2022-08-16T06:10:06.855Z,36.00
2022-08-16T06:12:36.685Z,35.18
2022-08-16T06:15:11.478Z,34.85
2022-08-16T06:17:44.165Z,34.08
2022-08-16T06:20:25.437Z,34.12
2022-08-16T06:23:03.316Z,33.38
2022-08-16T06:25:36.237Z,32.80
2022-08-16T06:28:08.573Z,32.63
2022-08-16T06:30:43.513Z,32.43
2022-08-16T06:33:22.280Z,31.55
2022-08-16T06:35:54.664Z,31.70
2022-08-16T06:38:33.935Z,31.27
2022-08-16T06:41:05.721Z,31.46
2022-08-16T06:43:33.573Z,31.03
2022-08-16T06:46:03.803Z,30.46
2022-08-16T06:48:32.942Z,30.09
2022-08-16T06:51:03.297Z,29.78
2022-08-16T06:53:32.557Z,29.55
2022-08-16T06:56:05.931Z,29.10
2022-08-16T06:58:34.397Z,30.01
2022-08-16T07:01:04.714Z,29.18
2022-08-16T07:03:55.240Z,28.85
2022-08-16T07:06:26.767Z,28.81
2022-08-16T07:08:54.307Z,28.77
2022-08-16T07:11:47.917Z,27.67
2022-08-16T07:14:26.447Z,27.66
2022-08-16T07:16:57.784Z,27.97
2022-08-16T07:20:03.734Z,27.03
2022-08-16T07:22:37.444Z,27.18
2022-08-16T07:24:59.024Z,26.80
2022-08-16T07:27:25.976Z,26.42
2022-08-16T07:29:55.711Z,26.16
2022-08-16T07:32:29.160Z,25.98
2022-08-16T07:34:56.516Z,26.92
2022-08-16T07:37:25.119Z,27.12
2022-08-16T07:39:52.567Z,26.54
2022-08-16T07:42:34.888Z,26.64
2022-08-16T07:45:03.374Z,27.40
2022-08-16T07:47:35.197Z,26.86
2022-08-16T07:50:07.470Z,26.27
2022-08-16T07:52:38.982Z,26.08
2022-08-16T07:55:08.043Z,25.68
2022-08-16T07:57:40.112Z,26.46
2022-08-16T08:00:21.733Z,27.19
2022-08-16T08:02:55.657Z,26.44
2022-08-16T08:05:25.424Z,26.39
2022-08-16T08:08:03.175Z,25.72
2022-08-16T08:10:38.962Z,25.49
2022-08-16T08:13:05.841Z,26.05
2022-08-16T08:15:34.571Z,25.96
2022-08-16T08:18:29.991Z,26.29
2022-08-16T08:20:59.289Z,25.86
2022-08-16T08:23:26.442Z,25.26
2022-08-16T08:25:55.825Z,25.26
2022-08-16T08:28:22.874Z,24.51
2022-08-16T08:31:01.477Z,24.70
2022-08-16T08:33:31.516Z,25.23
2022-08-16T08:36:01.418Z,25.07
2022-08-16T08:38:43.700Z,24.83
2022-08-16T08:41:15.408Z,24.57
2022-08-16T08:43:46.456Z,24.77
2022-08-16T08:46:18.308Z,25.07
2022-08-16T08:48:59.267Z,24.66
2022-08-16T08:51:35.939Z,24.62
2022-08-16T08:54:09.495Z,25.25
2022-08-16T08:56:45.835Z,25.33
2022-08-16T08:59:19.873Z,25.87
2022-08-16T09:01:57.014Z,26.25
2022-08-16T09:04:26.551Z,26.57
2022-08-16T09:06:56.119Z,26.19
2022-08-16T09:09:25.286Z,27.62
2022-08-16T09:12:06.438Z,28.17
2022-08-16T09:14:34.531Z,28.17
2022-08-16T09:17:14.068Z,28.78
2022-08-16T09:19:50.312Z,28.58
2022-08-16T09:22:22.641Z,28.80
2022-08-16T09:24:53.254Z,29.14
2022-08-16T09:27:23.315Z,29.23
2022-08-16T09:30:00.126Z,28.91
2022-08-16T09:32:30.942Z,28.92
2022-08-16T09:35:05.530Z,29.17
2022-08-16T09:37:37.571Z,30.61
2022-08-16T09:40:31.963Z,30.97
2022-08-16T09:43:05.843Z,31.72
2022-08-16T09:45:39.194Z,31.13
2022-08-16T09:48:36.877Z,31.22
2022-08-16T09:50:59.461Z,31.01
2022-08-16T09:53:32.964Z,31.02
2022-08-16T09:56:03.061Z,31.13
2022-08-16T09:59:05.743Z,31.22
2022-08-16T10:01:26.851Z,31.45
2022-08-16T10:04:01.911Z,31.43
2022-08-16T10:06:34.726Z,31.71
2022-08-16T10:09:12.289Z,32.43
2022-08-16T10:12:11.662Z,32.59
2022-08-16T10:14:46.902Z,32.22
2022-08-16T10:17:13.738Z,32.76
2022-08-16T10:19:50.369Z,32.56
2022-08-16T10:22:18.408Z,32.76
2022-08-16T10:24:56.051Z,33.12
2022-08-16T10:27:30.068Z,33.56
2022-08-16T10:30:26.018Z,33.24
2022-08-16T10:32:55.662Z,32.95
2022-08-16T10:35:33.004Z,32.56
2022-08-16T10:38:01.555Z,33.10
2022-08-16T10:40:30.642Z,32.73
2022-08-16T10:43:03.402Z,32.58
2022-08-16T10:45:37.002Z,32.81
2022-08-16T10:48:27.421Z,33.56
2022-08-16T10:50:59.878Z,33.08
2022-08-16T10:53:32.784Z,33.05
2022-08-16T10:56:55.828Z,33.01
2022-08-16T11:13:21.081Z,32.90
2022-08-16T11:18:54.727Z,33.38
2022-08-16T11:21:28.981Z,33.15
2022-08-16T11:23:59.858Z,33.53
2022-08-16T11:26:27.819Z,33.50
2022-08-16T11:29:14.037Z,33.56
2022-08-16T11:31:43.371Z,32.96
2022-08-16T11:34:14.253Z,32.47
2022-08-16T11:36:53.786Z,32.98
2022-08-16T11:39:59.631Z,32.27
2022-08-16T11:42:32.237Z,32.23
2022-08-16T11:45:08.574Z,31.89
2022-08-16T11:47:35.167Z,32.12
2022-08-16T11:50:04.277Z,32.46
2022-08-16T11:52:33.371Z,31.61
2022-08-16T11:55:02.492Z,32.27
2022-08-16T11:57:29.941Z,32.44
2022-08-16T11:59:58.799Z,32.13
2022-08-16T12:02:30.913Z,32.00
2022-08-16T12:05:00.009Z,31.94
2022-08-16T12:07:28.609Z,32.25
2022-08-16T12:09:55.213Z,32.57
2022-08-16T12:12:25.789Z,33.22
2022-08-16T12:15:00.368Z,33.30
2022-08-16T12:17:31.705Z,32.31
2022-08-16T12:20:05.078Z,31.98
2022-08-16T12:22:36.713Z,32.39
2022-08-16T12:25:06.671Z,31.78
2022-08-16T12:27:36.272Z,32.00
2022-08-16T12:30:21.358Z,31.33
2022-08-16T12:32:58.032Z,30.50
2022-08-16T12:35:27.548Z,30.57
2022-08-16T12:37:56.955Z,30.85
2022-08-16T12:40:32.880Z,30.51
2022-08-16T12:43:01.748Z,30.80
2022-08-16T12:45:33.881Z,30.88
2022-08-16T12:48:36.576Z,30.92
2022-08-16T12:51:19.886Z,30.32
2022-08-16T12:53:52.539Z,29.99
2022-08-16T12:56:26.052Z,29.93
2022-08-16T12:58:55.890Z,29.37
2022-08-16T13:01:29.026Z,29.41
2022-08-16T13:04:20.500Z,29.01
2022-08-16T13:06:48.439Z,28.51
2022-08-16T13:09:20.757Z,28.29
2022-08-16T13:12:00.530Z,28.64
2022-08-16T13:14:41.082Z,28.00
2022-08-16T13:17:18.542Z,27.99
2022-08-16T13:22:34.979Z,28.00
2022-08-16T13:25:02.025Z,27.84
2022-08-16T13:27:59.875Z,28.06
2022-08-16T13:30:36.241Z,28.36
2022-08-16T13:33:11.279Z,28.59
2022-08-16T13:35:46.265Z,28.66
2022-08-16T13:38:25.803Z,28.05
2022-08-16T13:40:56.764Z,29.05
2022-08-16T13:43:26.901Z,30.38
2022-08-16T13:45:56.308Z,31.46
2022-08-16T13:48:37.070Z,31.18
2022-08-16T13:51:17.062Z,31.38
2022-08-16T13:53:59.239Z,31.96
2022-08-16T13:56:35.922Z,32.01
2022-08-16T13:59:19.769Z,31.51
2022-08-16T14:01:55.641Z,31.05
2022-08-16T14:04:26.545Z,30.67
2022-08-16T14:06:54.862Z,30.62
2022-08-16T14:09:23.688Z,30.42
2022-08-16T14:11:53.398Z,30.44
2022-08-16T14:14:21.652Z,30.79
2022-08-16T14:16:55.880Z,31.09
2022-08-16T14:19:26.551Z,31.07
2022-08-16T14:22:14.739Z,30.94
2022-08-16T14:24:47.782Z,29.95
2022-08-16T14:27:22.603Z,30.42
2022-08-16T14:29:51.237Z,30.36
2022-08-16T14:32:32.940Z,30.18
2022-08-16T14:35:07.677Z,30.04
2022-08-16T14:37:35.155Z,30.84
2022-08-16T14:40:04.385Z,31.05
2022-08-16T14:42:31.846Z,30.86
2022-08-16T14:45:00.423Z,31.22
2022-08-16T14:47:31.599Z,30.75
2022-08-16T14:50:01.305Z,30.50
2022-08-16T14:52:54.153Z,30.81
2022-08-16T14:55:14.820Z,30.44
2022-08-16T14:57:42.614Z,30.67
2022-08-16T15:00:18.194Z,30.37
2022-08-16T15:02:49.874Z,31.00
2022-08-16T15:05:23.035Z,30.90
2022-08-16T15:07:53.098Z,30.54
2022-08-16T15:10:24.396Z,30.77
2022-08-16T15:12:56.313Z,30.59
2022-08-16T15:15:27.527Z,30.10
2022-08-16T15:17:56.941Z,30.04
2022-08-16T15:20:29.619Z,29.95
2022-08-16T15:22:59.630Z,29.77
2022-08-16T15:25:30.809Z,30.03
2022-08-16T15:28:00.881Z,29.94
2022-08-16T15:30:58.410Z,29.81
2022-08-16T15:33:20.818Z,30.33
2022-08-16T15:35:50.599Z,30.16
2022-08-16T15:38:57.353Z,30.57
2022-08-16T15:41:06.028Z,30.22
2022-08-16T15:43:39.498Z,30.86
2022-08-16T15:46:55.655Z,30.95
2022-08-16T15:49:14.815Z,31.11
2022-08-16T15:51:45.051Z,30.85
2022-08-16T15:54:29.651Z,30.77
2022-08-16T15:57:04.337Z,30.64
2022-08-16T15:59:49.326Z,30.84
2022-08-16T16:02:27.649Z,30.70
2022-08-16T16:04:57.131Z,31.06
2022-08-16T16:07:27.351Z,30.72
2022-08-16T16:09:56.644Z,30.81
2022-08-16T16:15:12.213Z,30.85
2022-08-16T16:17:38.762Z,30.85
2022-08-16T16:20:13.141Z,30.57
2022-08-16T16:22:43.557Z,30.40
2022-08-16T16:25:10.572Z,30.11
2022-08-16T16:27:37.194Z,30.21
2022-08-16T16:30:32.855Z,30.11
2022-08-16T16:32:58.092Z,29.85
2022-08-16T16:35:26.357Z,30.36
2022-08-16T16:37:56.538Z,30.76
2022-08-16T16:40:32.787Z,31.10
2022-08-16T16:43:00.434Z,31.07
2022-08-16T16:45:34.704Z,31.39
2022-08-16T16:48:12.706Z,31.79
2022-08-16T16:50:44.721Z,31.98
2022-08-16T16:53:17.275Z,31.78
2022-08-16T16:55:51.568Z,31.70
2022-08-16T16:58:43.236Z,32.00
2022-08-16T17:01:11.241Z,32.21
2022-08-16T17:03:38.512Z,32.54
2022-08-16T17:06:09.198Z,32.69
2022-08-16T17:08:41.592Z,33.06
2022-08-16T17:11:10.397Z,33.30
2022-08-16T17:13:38.425Z,33.63
2022-08-16T17:16:05.332Z,33.63
2022-08-16T17:19:16.282Z,34.03
2022-08-16T17:21:22.978Z,34.27
2022-08-16T17:23:58.582Z,34.30
2022-08-16T17:26:33.185Z,34.04
2022-08-16T17:29:10.843Z,34.45
2022-08-16T17:31:43.046Z,34.78
2022-08-16T17:34:28.953Z,35.08
2022-08-16T17:37:04.978Z,35.21
2022-08-16T17:39:54.824Z,35.65
2022-08-16T17:42:28.823Z,35.99
2022-08-16T17:44:57.626Z,35.96
2022-08-16T17:47:24.619Z,36.39
2022-08-16T17:49:52.263Z,36.36
2022-08-16T17:52:19.890Z,36.77
2022-08-16T17:54:47.089Z,37.13
2022-08-16T17:57:16.992Z,37.43
2022-08-16T17:59:44.383Z,37.20
2022-08-16T18:02:42.670Z,37.48
2022-08-16T18:04:59.458Z,38.23
2022-08-16T18:07:26.607Z,38.15
2022-08-16T18:09:53.380Z,38.61
2022-08-16T18:12:50.964Z,39.09
2022-08-16T18:15:17.290Z,39.03
2022-08-16T18:17:48.793Z,39.33
2022-08-16T18:20:34.551Z,39.50
2022-08-16T18:23:17.797Z,39.88
2022-08-16T18:25:54.471Z,40.23
2022-08-16T18:28:22.149Z,40.16
2022-08-16T18:30:51.956Z,40.86
2022-08-16T18:33:22.616Z,40.70
2022-08-16T18:35:55.602Z,40.72
2022-08-16T18:38:24.227Z,41.20
2022-08-16T18:40:51.138Z,41.71
2022-08-16T18:43:22.165Z,41.52
2022-08-16T18:46:08.777Z,42.04
2022-08-16T18:48:35.739Z,42.29
2022-08-16T18:51:09.237Z,41.95
2022-08-16T18:53:39.218Z,42.22
2022-08-16T18:56:06.179Z,42.92
2022-08-16T18:58:34.027Z,42.94
2022-08-16T19:01:00.820Z,43.34
2022-08-16T19:03:32.241Z,43.44
2022-08-16T19:06:06.182Z,43.78
2022-08-16T19:08:35.788Z,44.06
2022-08-16T19:11:04.120Z,44.20
2022-08-16T19:13:33.540Z,44.43
2022-08-16T19:16:02.184Z,44.84
2022-08-16T19:18:30.472Z,44.82
2022-08-16T19:21:04.952Z,45.21
2022-08-16T19:23:34.461Z,45.49
2022-08-16T19:26:07.441Z,45.67
2022-08-16T19:28:50.070Z,45.90
2022-08-16T19:31:28.792Z,46.31
2022-08-16T19:33:56.721Z,45.91
2022-08-16T19:36:33.918Z,46.18
2022-08-16T19:39:13.834Z,46.18
2022-08-16T19:41:46.681Z,46.68
2022-08-16T19:44:19.889Z,47.04
2022-08-16T19:46:49.305Z,47.20
2022-08-16T19:49:16.901Z,47.41
2022-08-16T19:51:51.617Z,47.73
2022-08-16T19:54:18.211Z,47.92
2022-08-16T19:56:47.121Z,48.08
2022-08-16T19:59:20.022Z,48.24
2022-08-16T20:01:51.031Z,48.27
2022-08-16T20:04:21.827Z,48.28
2022-08-16T20:06:48.568Z,48.36
2022-08-16T20:09:15.812Z,48.72
2022-08-16T20:11:46.478Z,48.63
2022-08-16T20:14:24.747Z,48.66
2022-08-16T20:16:57.073Z,48.86
2022-08-16T20:19:24.353Z,48.98
2022-08-16T20:21:54.091Z,49.43
2022-08-16T20:24:34.051Z,49.75
2022-08-16T20:27:06.201Z,50.05
2022-08-16T20:29:33.355Z,50.53
2022-08-16T20:32:00.104Z,51.19
2022-08-16T20:34:26.692Z,51.54
2022-08-16T20:36:53.339Z,51.96
2022-08-16T20:39:20.016Z,52.80
2022-08-16T20:41:46.635Z,53.63
2022-08-16T20:44:15.651Z,54.34
2022-08-16T20:46:49.790Z,55.01
2022-08-16T20:49:16.343Z,55.60
2022-08-16T20:51:49.558Z,56.18
2022-08-16T20:54:19.199Z,56.76
2022-08-16T20:56:45.854Z,57.04
2022-08-16T20:59:12.453Z,57.42
2022-08-16T21:01:46.629Z,58.17
2022-08-16T21:04:17.624Z,58.63
2022-08-16T21:06:53.064Z,58.82
2022-08-16T21:09:26.725Z,59.39
2022-08-16T21:11:55.866Z,59.75
2022-08-16T21:14:26.690Z,60.10
2022-08-16T21:16:53.427Z,60.01
2022-08-16T21:19:21.930Z,60.52
2022-08-16T21:21:49.087Z,60.83
2022-08-16T21:24:16.263Z,61.17
2022-08-16T21:26:53.033Z,61.22
2022-08-16T21:29:25.090Z,61.47
2022-08-16T21:31:54.559Z,61.81
2022-08-16T21:34:21.506Z,61.62
2022-08-16T21:36:48.818Z,62.22
2022-08-16T21:39:15.496Z,62.50
2022-08-16T21:41:42.024Z,62.65
2022-08-16T21:44:08.653Z,62.89
2022-08-16T21:46:37.469Z,63.13
2022-08-16T21:49:05.806Z,63.36
2022-08-16T21:51:32.401Z,63.55
2022-08-16T21:53:59.305Z,63.51
2022-08-16T21:56:25.928Z,63.87
2022-08-16T21:58:53.738Z,64.27
2022-08-16T22:01:23.042Z,64.47
2022-08-16T22:04:27.213Z,64.88
2022-08-16T22:06:38.755Z,65.48
2022-08-16T22:09:07.054Z,65.79
2022-08-16T22:11:34.197Z,65.78
2022-08-16T22:14:01.012Z,65.61
2022-08-16T22:16:31.005Z,65.83
2022-08-16T22:18:57.775Z,66.02
2022-08-16T22:21:27.444Z,66.56
2022-08-16T22:23:57.648Z,66.51
2022-08-16T22:26:32.684Z,66.38
2022-08-16T22:29:09.690Z,66.32
2022-08-16T22:31:39.250Z,66.08
2022-08-16T22:34:06.274Z,66.45
2022-08-16T22:36:33.749Z,66.37
2022-08-16T22:39:05.801Z,66.65
2022-08-16T22:41:34.464Z,66.88
2022-08-16T22:44:05.837Z,66.63
2022-08-16T22:46:34.792Z,66.77
2022-08-16T22:49:01.350Z,66.71
2022-08-16T22:51:28.637Z,66.89
2022-08-16T22:53:58.294Z,67.19
2022-08-16T22:56:25.471Z,66.90
2022-08-16T22:58:54.491Z,67.26
2022-08-16T23:01:26.588Z,67.13
2022-08-16T23:03:59.886Z,67.15
2022-08-16T23:06:26.531Z,67.49
2022-08-16T23:08:53.367Z,67.58
2022-08-16T23:11:25.457Z,67.76
2022-08-16T23:13:56.379Z,67.82
2022-08-16T23:16:30.810Z,67.56
2022-08-16T23:19:02.067Z,67.70
2022-08-16T23:21:28.791Z,67.74
2022-08-16T23:23:55.467Z,68.07
2022-08-16T23:26:45.406Z,68.15
2022-08-16T23:29:15.902Z,68.27
2022-08-16T23:31:53.598Z,68.00
2022-08-16T23:34:21.583Z,68.28
2022-08-16T23:36:48.110Z,68.29
2022-08-16T23:39:14.700Z,68.52
2022-08-16T23:41:41.427Z,68.47
2022-08-16T23:44:55.537Z,68.81
2022-08-16T23:46:55.625Z,68.90
2022-08-16T23:50:00.170Z,69.01
2022-08-16T23:52:13.643Z,69.03
2022-08-16T23:54:40.246Z,69.28
2022-08-16T23:57:08.308Z,69.86
2022-08-16T23:59:48.606Z,69.96
